Hlavní strana
METAR-TAF:

METAR-TAF

Letiště :

Wilmington, Ohio, Spojené státy americké

zeměpisná šířka: 39-25-42N, zeměpisná délka: 083-46-45W, výška: 328 m

Aktuální stav počasí

Zpráva byla vytvořena před 29 minutami, v 10:54 UTC
Severní vítr 5 kt
Teplota -3°C
Vlhkost vzduchu 93%
Tlak 1024 hPa
Viditelnost: 16.1 km
Jasno

METAR: KILN 251054Z AUTO 36005KT 10SM CLR M03/M04 A3025 RMK AO2 SLP265 T10281039

Čas: 06:23 (11:23 UTC)

Předpověď počasí

Zpráva byla vytvořena před 6 hodinami a 2 minutami, v 05:21 UTC
Předpověď platná od 25 v 06 UTC do 26 v 06 UTC
Severní vítr 9 kt
Viditelnost: 10 km
Oblačno až skoro zataženo ve výšce 2000 ft
Od 25 v 1000 UTC
Severoseverozápadní vítr 8 kt
Viditelnost: 10 km
Polojasno ve výšce 2500 ft
Od 25 v 2200 UTC
Severozápadní vítr 7 kt
Viditelnost: 10 km
Polojasno ve výšce 3500 ft
Polojasno ve výšce 25000 ft

TAF: KILN 250521Z 2506/2606 36009KT P6SM BKN020 FM251000 33008KT P6SM SCT025 FM252200 32007KT P6SM SCT035 SCT250

Stav a předpovědi počasí z více než 4 000 letišť (zprávy METAR a TAF).

Červené a žluté tečky na mapě představují dostupné meteorologické stanice.

Když kurzor umístíte na tečku, zobrazí se název stanice.

Pak kliknutím zobrazíte stav a předpověď počasí.

Chcete-li změnit mapu, kliknutím na zelené tlačítko se znaménkem +mapu přiblížíte, kliknutím na zelené tlačítko se znaménkem – mapu oddálíte a kliknutím na zelené šipky přejdete na sousední mapy.


METAR-TAF: